createdAt,value
2022-12-22T00:02:50.367Z,100.00
2022-12-22T00:09:10.839Z,100.00
2022-12-22T00:15:35.830Z,100.00
2022-12-22T00:21:56.455Z,100.00
2022-12-22T00:28:16.973Z,100.00
2022-12-22T00:34:40.806Z,100.00
2022-12-22T00:41:01.314Z,100.00
2022-12-22T00:47:21.905Z,100.00
2022-12-22T00:53:42.573Z,100.00
2022-12-22T01:00:03.277Z,100.00
2022-12-22T01:06:28.881Z,100.00
2022-12-22T01:12:50.052Z,100.00
2022-12-22T01:19:10.530Z,100.00
2022-12-22T01:25:35.138Z,100.00
2022-12-22T01:31:55.522Z,100.00
2022-12-22T01:38:15.939Z,100.00
2022-12-22T01:44:36.916Z,100.00
2022-12-22T01:50:57.921Z,100.00
2022-12-22T01:57:20.027Z,100.00
2022-12-22T02:03:41.404Z,100.00
2022-12-22T02:10:20.219Z,100.00
2022-12-22T02:17:14.662Z,100.00
2022-12-22T02:23:43.169Z,100.00
2022-12-22T02:30:22.231Z,100.00
2022-12-22T02:37:23.839Z,100.00
2022-12-22T02:44:12.130Z,100.00
2022-12-22T02:50:53.483Z,100.00
2022-12-22T02:57:13.890Z,100.00
2022-12-22T03:03:34.698Z,100.00
2022-12-22T03:09:55.299Z,100.00
2022-12-22T03:16:15.738Z,100.00
2022-12-22T03:22:36.111Z,100.00
2022-12-22T03:28:37.979Z,100.00
2022-12-22T03:34:39.866Z,100.00
2022-12-22T03:40:44.365Z,100.00
2022-12-22T03:46:46.484Z,100.00
2022-12-22T03:52:48.410Z,100.00
2022-12-22T03:58:50.286Z,100.00
2022-12-22T04:04:52.163Z,100.00
2022-12-22T04:11:12.771Z,100.00
2022-12-22T04:17:14.652Z,100.00
2022-12-22T04:23:16.578Z,100.00
2022-12-22T04:29:18.544Z,100.00
2022-12-22T04:35:20.445Z,100.00
2022-12-22T04:41:22.322Z,100.00
2022-12-22T04:47:24.211Z,100.00
2022-12-22T04:53:28.482Z,100.00
2022-12-22T04:59:30.427Z,100.00
2022-12-22T05:05:33.544Z,100.00
2022-12-22T05:11:35.442Z,100.00
2022-12-22T05:17:37.350Z,100.00
2022-12-22T05:23:40.820Z,100.00
2022-12-22T05:29:42.709Z,100.00
2022-12-22T05:35:44.723Z,100.00
2022-12-22T05:41:46.781Z,100.00
2022-12-22T05:47:51.985Z,100.00
2022-12-22T05:53:53.906Z,100.00
2022-12-22T05:59:55.897Z,100.00
2022-12-22T06:05:58.441Z,100.00
2022-12-22T06:12:00.430Z,100.00
2022-12-22T06:18:02.350Z,100.00
2022-12-22T06:24:05.935Z,100.00
2022-12-22T06:30:08.773Z,100.00
2022-12-22T06:36:11.068Z,100.00
2022-12-22T06:42:31.703Z,100.00
2022-12-22T06:48:33.653Z,100.00
2022-12-22T06:54:35.800Z,100.00
2022-12-22T07:00:37.780Z,100.00
2022-12-22T07:06:39.662Z,100.00
2022-12-22T07:12:41.886Z,100.00
2022-12-22T07:18:43.833Z,100.00
2022-12-22T07:24:45.726Z,100.00
2022-12-22T07:30:48.371Z,100.00
2022-12-22T07:36:50.242Z,100.00
2022-12-22T07:43:00.508Z,100.00
2022-12-22T07:49:21.464Z,100.00
2022-12-22T07:55:29.646Z,100.00
2022-12-22T08:01:31.715Z,100.00
2022-12-22T08:07:33.727Z,100.00
2022-12-22T08:13:35.909Z,100.00
2022-12-22T08:19:37.874Z,100.00
2022-12-22T08:25:40.781Z,100.00
2022-12-22T08:31:43.603Z,100.00
2022-12-22T08:37:47.262Z,100.00
2022-12-22T08:43:49.157Z,100.00
2022-12-22T08:49:51.054Z,100.00
2022-12-22T08:55:55.160Z,100.00
2022-12-22T09:01:57.288Z,100.00
2022-12-22T09:07:59.683Z,100.00
2022-12-22T09:14:04.356Z,100.00
2022-12-22T09:20:07.515Z,100.00
2022-12-22T09:26:15.485Z,100.00
2022-12-22T09:32:17.431Z,100.00
2022-12-22T09:38:20.127Z,100.00
2022-12-22T09:44:33.193Z,100.00
2022-12-22T09:50:38.061Z,100.00
2022-12-22T09:56:40.307Z,100.00
2022-12-22T10:03:22.538Z,100.00
2022-12-22T10:15:53.801Z,100.00
2022-12-22T10:21:55.693Z,100.00
2022-12-22T10:28:00.678Z,100.00
2022-12-22T10:34:18.093Z,100.00
2022-12-22T10:40:22.507Z,100.00
2022-12-22T10:46:39.066Z,100.00
2022-12-22T10:52:41.113Z,100.00
2022-12-22T10:59:05.907Z,100.00
2022-12-22T11:05:11.419Z,100.00
2022-12-22T11:11:41.842Z,100.00
2022-12-22T11:18:30.069Z,100.00
2022-12-22T11:24:52.437Z,100.00
2022-12-22T11:31:50.565Z,100.00
2022-12-22T11:38:29.695Z,100.00
2022-12-22T11:45:24.964Z,100.00
2022-12-22T11:52:16.171Z,100.00
2022-12-22T11:58:45.024Z,100.00
2022-12-22T12:05:23.170Z,100.00
2022-12-22T12:12:01.309Z,100.00
2022-12-22T12:18:38.358Z,100.00
2022-12-22T12:25:25.446Z,100.00
2022-12-22T12:31:37.611Z,100.00
2022-12-22T12:37:44.067Z,100.00
2022-12-22T12:43:48.819Z,100.00
2022-12-22T12:49:56.321Z,100.00
2022-12-22T12:56:05.788Z,100.00
2022-12-22T13:02:28.286Z,100.00
2022-12-22T13:09:14.312Z,100.00
2022-12-22T13:15:38.231Z,100.00
2022-12-22T13:21:54.260Z,100.00
2022-12-22T13:27:58.394Z,100.00
2022-12-22T13:35:20.018Z,100.00
2022-12-22T13:41:26.918Z,100.00
2022-12-22T13:47:29.459Z,100.00
2022-12-22T14:00:23.750Z,100.00
2022-12-22T14:06:28.601Z,100.00
2022-12-22T14:12:38.092Z,100.00
2022-12-22T14:18:40.322Z,100.00
2022-12-22T14:24:54.363Z,100.00
2022-12-22T14:31:00.027Z,100.00
2022-12-22T14:37:02.926Z,100.00
2022-12-22T14:43:23.836Z,100.00
2022-12-22T14:49:26.885Z,100.00
2022-12-22T14:55:41.013Z,100.00
2022-12-22T15:02:19.505Z,100.00
2022-12-22T15:08:44.605Z,100.00
2022-12-22T15:14:48.814Z,100.00
2022-12-22T15:20:50.984Z,100.00
2022-12-22T15:26:52.897Z,100.00
2022-12-22T15:32:56.916Z,98.55
2022-12-22T15:38:58.850Z,96.92
2022-12-22T15:45:00.741Z,94.44
2022-12-22T15:51:06.347Z,93.82
2022-12-22T15:57:13.898Z,93.69
2022-12-22T16:03:16.032Z,94.67
2022-12-22T16:09:24.088Z,94.47
2022-12-22T16:15:32.862Z,96.36
2022-12-22T16:21:34.858Z,96.82
2022-12-22T16:27:36.850Z,97.33
2022-12-22T16:33:38.762Z,96.90
2022-12-22T16:39:40.744Z,96.93
2022-12-22T16:45:45.452Z,98.02
2022-12-22T16:51:51.586Z,98.55
2022-12-22T16:57:53.471Z,98.36
2022-12-22T17:03:56.558Z,99.60
2022-12-22T17:10:02.181Z,99.42
2022-12-22T17:16:05.171Z,100.00
2022-12-22T17:22:22.948Z,99.83
2022-12-22T17:28:25.478Z,98.94
2022-12-22T17:34:27.363Z,100.00
2022-12-22T17:40:34.327Z,100.00
2022-12-22T17:46:36.407Z,100.00
2022-12-22T17:52:39.561Z,100.00
2022-12-22T17:58:43.357Z,100.00
2022-12-22T18:04:46.690Z,100.00
2022-12-22T18:10:51.693Z,100.00
2022-12-22T18:16:53.689Z,100.00
2022-12-22T18:23:02.174Z,100.00
2022-12-22T18:29:04.619Z,100.00
2022-12-22T18:35:06.999Z,100.00
2022-12-22T18:41:09.822Z,100.00
2022-12-22T18:47:12.192Z,100.00
2022-12-22T18:53:29.350Z,100.00
2022-12-22T18:59:32.824Z,100.00
2022-12-22T19:05:34.813Z,100.00
2022-12-22T19:11:36.703Z,100.00
2022-12-22T19:17:38.638Z,100.00
2022-12-22T19:23:41.076Z,100.00
2022-12-22T19:29:43.139Z,100.00
2022-12-22T19:35:45.031Z,100.00
2022-12-22T19:41:49.846Z,100.00
2022-12-22T19:47:54.041Z,100.00
2022-12-22T19:53:55.946Z,100.00
2022-12-22T19:59:58.079Z,100.00
2022-12-22T20:05:59.992Z,100.00
2022-12-22T20:12:03.198Z,100.00
2022-12-22T20:18:21.570Z,100.00
2022-12-22T20:24:23.602Z,100.00
2022-12-22T20:30:29.758Z,100.00
2022-12-22T20:36:31.983Z,100.00
2022-12-22T20:42:34.074Z,100.00
2022-12-22T20:48:40.490Z,100.00
2022-12-22T20:54:42.767Z,100.00
2022-12-22T21:00:45.093Z,100.00
2022-12-22T21:06:55.243Z,100.00
2022-12-22T21:12:57.191Z,100.00
2022-12-22T21:18:59.090Z,100.00
2022-12-22T21:25:01.060Z,100.00
2022-12-22T21:31:04.515Z,100.00
2022-12-22T21:37:15.839Z,100.00
2022-12-22T21:43:18.121Z,100.00
2022-12-22T21:49:24.161Z,100.00
2022-12-22T21:55:31.604Z,100.00
2022-12-22T22:01:33.623Z,100.00
2022-12-22T22:07:36.231Z,100.00
2022-12-22T22:13:38.117Z,100.00
2022-12-22T22:19:40.119Z,100.00
2022-12-22T22:25:42.536Z,100.00
2022-12-22T22:31:44.662Z,100.00
2022-12-22T22:37:50.670Z,100.00
2022-12-22T22:43:55.797Z,100.00
2022-12-22T22:49:57.691Z,100.00
2022-12-22T22:56:03.416Z,100.00
2022-12-22T23:02:05.428Z,100.00
2022-12-22T23:08:07.434Z,100.00
2022-12-22T23:14:09.751Z,100.00
2022-12-22T23:20:11.905Z,100.00
2022-12-22T23:26:13.995Z,100.00
2022-12-22T23:32:15.867Z,100.00
2022-12-22T23:38:20.966Z,100.00
2022-12-22T23:44:22.941Z,100.00
2022-12-22T23:50:26.470Z,100.00
2022-12-22T23:56:30.117Z,100.00
